Time;durP1;ratioP1;P1;durP2;ratioP2;P2;SDS_P1;SDS_P2;PMS_P1;PMS_P2;Temp;Humidity;BMP_temperature;BMP_pressure;BME280_temperature;BME280_humidity;BME280_pressure;Samples;Min_cycle;Max_cycle;Signal;HPM_P1;HPM_P2
2022/10/18 00:01:36;;;;;;;;;;;;;;;21.03;53.87;102176.19;5124021;28;19931;-39
2022/10/18 00:04:02;;;;;;;;;;;;;;;21.03;53.74;102180.91;5127633;27;19932;-39
2022/10/18 00:06:27;;;;;;;;;;;;;;;21.03;53.81;102178.13;5107715;28;19923;-40
2022/10/18 00:08:53;;;;;;;;;;;;;;;21.03;53.98;102176.19;5125053;28;19931;-40
2022/10/18 00:11:18;;;;;;;;;;;;;;;21.03;53.74;102175.38;5126291;28;19931;-40
2022/10/18 00:13:44;;;;;;;;;;;;;;;21.03;53.71;102175.38;5109372;28;19931;-39
2022/10/18 00:16:11;;;;;;;;;;;;;;;21.02;53.96;102177.28;5123168;28;19932;-41
2022/10/18 00:18:37;;;;;;;;;;;;;;;21.03;53.75;102172.59;5107405;28;19962;-39
2022/10/18 00:21:04;;;;;;;;;;;;;;;21.03;53.76;102169.81;5125347;28;19932;-39
2022/10/18 00:23:29;;;;;;;;;;;;;;;21.03;53.86;102167.06;5127109;28;20022;-39
2022/10/18 00:25:59;;;;;;;;;;;;;;;21.02;53.67;102170.91;5108915;28;19939;-40
2022/10/18 00:28:24;;;;;;;;;;;;;;;21.02;53.75;102163.44;5124398;28;19972;-42
2022/10/18 00:30:50;;;;;;;;;;;;;;;21.01;53.77;102161.75;5126895;28;19927;-40
2022/10/18 00:33:15;;;;;;;;;;;;;;;21.03;53.70;102161.53;5126104;28;19927;-40
2022/10/18 00:35:41;;;;;;;;;;;;;;;21.02;53.76;102159.81;5126097;28;20440;-40
2022/10/18 00:38:06;;;;;;;;;;;;;;;21.01;53.50;102150.69;5125127;27;19931;-41
2022/10/18 00:40:32;;;;;;;;;;;;;;;21.01;53.68;102141.53;5123513;28;20128;-40
2022/10/18 00:42:58;;;;;;;;;;;;;;;21.02;53.74;102143.22;5124267;27;19924;-40
2022/10/18 00:45:23;;;;;;;;;;;;;;;21.01;53.82;102150.69;5126997;27;20187;-39
2022/10/18 00:47:50;;;;;;;;;;;;;;;21.01;53.73;102147.91;5125633;28;19923;-40
2022/10/18 00:50:16;;;;;;;;;;;;;;;21.01;53.76;102153.47;5107485;28;20561;-39
2022/10/18 00:52:42;;;;;;;;;;;;;;;21.02;53.83;102146.81;5127673;28;19930;-39
2022/10/18 00:55:08;;;;;;;;;;;;;;;21.02;53.74;102140.44;5126912;28;20057;-40
2022/10/18 00:57:33;;;;;;;;;;;;;;;21.01;53.91;102136.84;5108007;28;19923;-40
2022/10/18 00:59:59;;;;;;;;;;;;;;;21.01;53.77;102139.59;5125476;28;20367;-40
2022/10/18 01:02:25;;;;;;;;;;;;;;;21.02;53.81;102132.13;5107623;28;19923;-40
2022/10/18 01:04:50;;;;;;;;;;;;;;;21.01;53.77;102133.25;5124401;28;19937;-40
2022/10/18 01:07:21;;;;;;;;;;;;;;;21.02;53.81;102129.34;5124400;28;19935;-39
2022/10/18 01:09:59;;;;;;;;;;;;;;;21.01;53.74;102124.94;5123838;28;20014;-39
2022/10/18 01:12:44;;;;;;;;;;;;;;;21.01;53.83;102131.28;5125174;28;20402;-41
2022/10/18 01:15:30;;;;;;;;;;;;;;;21.00;53.84;102124.09;5109194;28;20027;-41
2022/10/18 01:18:15;;;;;;;;;;;;;;;21.01;53.77;102124.94;5110364;28;20145;-39
2022/10/18 01:20:50;;;;;;;;;;;;;;;21.01;53.79;102128.53;5110993;28;20002;-40
2022/10/18 01:23:30;;;;;;;;;;;;;;;21.00;53.81;102123.25;5124627;28;20065;-39
2022/10/18 01:26:15;;;;;;;;;;;;;;;21.00;53.82;102120.50;5126171;28;19963;-39
2022/10/18 01:29:00;;;;;;;;;;;;;;;21.00;53.77;102121.31;5109341;28;19983;-39
2022/10/18 01:31:43;;;;;;;;;;;;;;;21.01;53.55;102122.16;5125388;28;19927;-39
2022/10/18 01:34:08;;;;;;;;;;;;;;;21.00;53.86;102121.31;5126004;28;20464;-40
2022/10/18 01:36:35;;;;;;;;;;;;;;;20.99;53.77;102122.44;5124646;27;19931;-41
2022/10/18 01:39:07;;;;;;;;;;;;;;;21.00;53.71;102126.88;5124950;28;20389;-39
2022/10/18 01:41:33;;;;;;;;;;;;;;;21.00;53.68;102120.50;5123360;28;20019;-41
2022/10/18 01:43:59;;;;;;;;;;;;;;;21.00;53.78;102135.16;5127027;27;20229;-42
2022/10/18 01:46:25;;;;;;;;;;;;;;;20.99;53.71;102130.75;5124564;28;19932;-39
2022/10/18 01:48:51;;;;;;;;;;;;;;;21.01;53.71;102127.69;5125236;27;19969;-40
2022/10/18 01:51:19;;;;;;;;;;;;;;;21.00;53.62;102123.25;5127990;28;19931;-39
2022/10/18 01:53:44;;;;;;;;;;;;;;;21.00;53.78;102126.03;5111525;28;19954;-39
2022/10/18 01:56:30;;;;;;;;;;;;;;;21.00;53.73;102120.50;5128906;28;19931;-40
2022/10/18 01:59:15;;;;;;;;;;;;;;;20.99;53.65;102125.19;5110396;28;19977;-40
2022/10/18 02:01:51;;;;;;;;;;;;;;;20.98;53.73;102123.53;5111956;28;20367;-40
2022/10/18 02:04:21;;;;;;;;;;;;;;;20.99;53.43;102130.75;5111214;28;19955;-44
2022/10/18 02:06:47;;;;;;;;;;;;;;;20.99;53.77;102127.13;5109200;28;20014;-39
2022/10/18 02:09:14;;;;;;;;;;;;;;;21.00;53.71;102131.56;5126486;28;19927;-39
2022/10/18 02:11:39;;;;;;;;;;;;;;;20.99;53.66;102118.84;5125498;28;19955;-39
2022/10/18 02:14:06;;;;;;;;;;;;;;;20.99;53.68;102116.91;5128227;28;19927;-41
2022/10/18 02:16:36;;;;;;;;;;;;;;;20.99;53.59;102121.59;5125907;28;20401;-40
2022/10/18 02:19:11;;;;;;;;;;;;;;;20.99;53.73;102122.44;5125484;28;20014;-40
2022/10/18 02:21:37;;;;;;;;;;;;;;;20.99;53.71;102118.84;5126445;28;19923;-39
2022/10/18 02:24:03;;;;;;;;;;;;;;;20.99;53.74;102118.84;5129106;28;20323;-40
2022/10/18 02:26:28;;;;;;;;;;;;;;;20.99;53.76;102129.91;5129018;28;20353;-40
2022/10/18 02:28:54;;;;;;;;;;;;;;;20.99;53.83;102127.13;5128100;27;19939;-39
2022/10/18 02:31:25;;;;;;;;;;;;;;;20.99;53.73;102119.66;5110648;28;19994;-40
2022/10/18 02:34:11;;;;;;;;;;;;;;;20.99;53.62;102121.59;5128211;28;19962;-41
2022/10/18 02:36:37;;;;;;;;;;;;;;;20.99;53.84;102118.84;5112592;28;20022;-39
2022/10/18 02:39:05;;;;;;;;;;;;;;;20.99;53.62;102125.19;5127880;28;19953;-40
2022/10/18 02:41:30;;;;;;;;;;;;;;;20.99;53.74;102127.97;5126458;28;20394;-39
2022/10/18 02:43:56;;;;;;;;;;;;;;;20.99;53.61;102129.91;5116019;28;19923;-39
2022/10/18 02:46:21;;;;;;;;;;;;;;;20.99;53.75;102129.91;5127470;28;19931;-41
2022/10/18 02:48:47;;;;;;;;;;;;;;;20.98;53.65;102126.31;5126490;28;20054;-39
2022/10/18 02:51:13;;;;;;;;;;;;;;;20.98;53.68;102122.69;5128285;28;19937;-41
2022/10/18 02:53:38;;;;;;;;;;;;;;;20.99;53.83;102130.75;5110913;28;20310;-41
2022/10/18 02:56:04;;;;;;;;;;;;;;;20.99;53.75;102129.91;5127427;28;19931;-39
2022/10/18 02:58:29;;;;;;;;;;;;;;;20.98;53.60;102134.63;5109068;28;19927;-40
2022/10/18 03:00:55;;;;;;;;;;;;;;;20.99;53.70;102133.50;5127529;27;19927;-39
2022/10/18 03:03:20;;;;;;;;;;;;;;;20.98;53.83;102134.63;5125181;28;19931;-40
2022/10/18 03:05:49;;;;;;;;;;;;;;;20.99;53.73;102132.69;5126609;28;19945;-41
2022/10/18 03:08:15;;;;;;;;;;;;;;;20.99;53.78;102138.22;5107510;28;20013;-43
2022/10/18 03:10:44;;;;;;;;;;;;;;;20.98;53.64;102130.97;5122688;28;19923;-41
2022/10/18 03:13:09;;;;;;;;;;;;;;;20.98;53.68;102130.97;5125523;28;20089;-41
2022/10/18 03:15:35;;;;;;;;;;;;;;;20.98;53.61;102134.63;5128462;27;19923;-40
2022/10/18 03:18:01;;;;;;;;;;;;;;;20.98;53.63;102131.84;5124910;28;19953;-40
2022/10/18 03:20:26;;;;;;;;;;;;;;;20.97;53.61;102127.38;5126194;28;20325;-40
2022/10/18 03:22:52;;;;;;;;;;;;;;;20.98;53.65;102129.06;5128157;28;19931;-40
2022/10/18 03:25:18;;;;;;;;;;;;;;;20.98;53.58;102128.22;5127390;28;19928;-40
2022/10/18 03:27:43;;;;;;;;;;;;;;;20.98;53.56;102131.84;5126333;28;19927;-39
2022/10/18 03:30:10;;;;;;;;;;;;;;;20.98;53.76;102133.75;5125695;28;19923;-40
2022/10/18 03:32:36;;;;;;;;;;;;;;;20.97;53.73;102132.91;5108903;28;19963;-39
2022/10/18 03:35:02;;;;;;;;;;;;;;;20.99;53.65;102132.69;5108172;28;20015;-40
2022/10/18 03:37:28;;;;;;;;;;;;;;;20.98;53.80;102133.75;5125972;28;20414;-41
2022/10/18 03:39:54;;;;;;;;;;;;;;;20.98;53.61;102140.16;5108137;28;19931;-39
2022/10/18 03:42:19;;;;;;;;;;;;;;;20.96;53.71;102131.25;5125524;28;20298;-39
2022/10/18 03:44:45;;;;;;;;;;;;;;;20.97;53.68;102129.31;5126707;28;19927;-39
2022/10/18 03:47:11;;;;;;;;;;;;;;;20.97;53.58;102132.91;5126057;28;19924;-39
2022/10/18 03:49:36;;;;;;;;;;;;;;;20.97;53.64;102116.31;5128052;28;19978;-39
2022/10/18 03:52:02;;;;;;;;;;;;;;;20.98;53.63;102128.22;5126808;28;19927;-41
2022/10/18 03:54:27;;;;;;;;;;;;;;;20.98;53.64;102128.22;5127118;28;19923;-41
2022/10/18 03:56:53;;;;;;;;;;;;;;;20.97;53.72;102127.38;5127004;28;19923;-39
2022/10/18 03:59:18;;;;;;;;;;;;;;;20.98;53.52;102130.97;5126909;28;20243;-40
2022/10/18 04:01:44;;;;;;;;;;;;;;;20.97;53.59;102127.38;5124596;28;19934;-41
2022/10/18 04:04:10;;;;;;;;;;;;;;;20.97;53.59;102129.31;5127135;28;19935;-40
2022/10/18 04:06:35;;;;;;;;;;;;;;;20.96;53.68;102122.94;5123953;28;19927;-43
2022/10/18 04:09:01;;;;;;;;;;;;;;;20.97;53.50;102127.38;5126079;28;19924;-40
2022/10/18 04:11:30;;;;;;;;;;;;;;;20.97;53.66;102129.31;5127091;27;19973;-40
2022/10/18 04:13:56;;;;;;;;;;;;;;;20.96;53.54;102130.44;5125773;28;19927;-40
2022/10/18 04:16:21;;;;;;;;;;;;;;;20.96;53.52;102134.03;5127148;27;19931;-39
2022/10/18 04:18:47;;;;;;;;;;;;;;;20.96;53.68;102139.56;5126360;28;20112;-42
2022/10/18 04:21:12;;;;;;;;;;;;;;;20.96;53.61;102131.25;5126981;28;19939;-40
2022/10/18 04:23:38;;;;;;;;;;;;;;;20.97;53.59;102140.41;5127975;28;19971;-39
2022/10/18 04:26:04;;;;;;;;;;;;;;;20.95;53.48;102137.91;5126345;28;19981;-39
2022/10/18 04:28:29;;;;;;;;;;;;;;;20.96;53.71;102134.03;5126736;27;19959;-39
2022/10/18 04:30:55;;;;;;;;;;;;;;;20.96;53.54;102141.50;5126011;28;20012;-39
2022/10/18 04:33:21;;;;;;;;;;;;;;;20.96;53.73;102142.34;5127267;28;19935;-40
2022/10/18 04:35:46;;;;;;;;;;;;;;;20.96;53.68;102153.41;5123693;28;19931;-39
2022/10/18 04:38:13;;;;;;;;;;;;;;;20.95;53.47;102135.13;5126207;28;19924;-40
2022/10/18 04:40:38;;;;;;;;;;;;;;;20.96;53.53;102149.81;5125337;28;20046;-40
2022/10/18 04:43:04;;;;;;;;;;;;;;;20.97;53.58;102148.72;5107015;28;20371;-42
2022/10/18 04:45:29;;;;;;;;;;;;;;;20.96;53.53;102149.81;5117360;28;19928;-40
2022/10/18 04:47:55;;;;;;;;;;;;;;;20.96;53.58;102150.66;5103857;28;19949;-42
2022/10/18 04:50:20;;;;;;;;;;;;;;;20.95;53.51;102151.75;5124645;28;19931;-39
2022/10/18 04:52:46;;;;;;;;;;;;;;;20.97;53.62;102145.94;5119759;28;20411;-40
2022/10/18 04:55:12;;;;;;;;;;;;;;;20.96;53.46;102147.03;5119153;28;19962;-39
2022/10/18 04:57:37;;;;;;;;;;;;;;;20.95;53.49;102157.28;5121873;28;20222;-39
2022/10/18 05:00:03;;;;;;;;;;;;;;;20.96;53.60;102158.13;5121869;28;19970;-41
2022/10/18 05:02:29;;;;;;;;;;;;;;;20.95;53.47;102151.75;5125431;28;20426;-40
2022/10/18 05:04:55;;;;;;;;;;;;;;;20.95;53.56;102148.97;5123329;28;19985;-41
2022/10/18 05:07:20;;;;;;;;;;;;;;;20.94;53.56;102149.22;5123421;28;20535;-39
2022/10/18 05:09:46;;;;;;;;;;;;;;;20.95;53.54;102157.28;5126594;28;19923;-41
2022/10/18 05:12:11;;;;;;;;;;;;;;;20.95;53.69;102153.69;5126266;28;19923;-41
2022/10/18 05:14:37;;;;;;;;;;;;;;;20.94;53.56;102146.47;5120507;28;20306;-41
2022/10/18 05:17:02;;;;;;;;;;;;;;;20.94;53.70;102140.91;5122898;28;19923;-40
2022/10/18 05:19:28;;;;;;;;;;;;;;;20.94;53.66;102144.56;5126452;28;19931;-40
2022/10/18 05:21:53;;;;;;;;;;;;;;;20.95;53.58;102142.63;5122597;28;20108;-40
2022/10/18 05:24:19;;;;;;;;;;;;;;;20.94;53.61;102144.56;5127842;27;19930;-40
2022/10/18 05:26:49;;;;;;;;;;;;;;;20.95;53.75;102145.38;5128943;28;21416;-41
2022/10/18 05:29:14;;;;;;;;;;;;;;;20.94;53.55;102141.78;5129187;28;19934;-42
2022/10/18 05:31:40;;;;;;;;;;;;;;;20.95;53.63;102140.69;5125516;28;19934;-40
2022/10/18 05:34:06;;;;;;;;;;;;;;;20.95;53.54;102145.38;5126119;28;19930;-40
2022/10/18 05:36:31;;;;;;;;;;;;;;;20.94;53.61;102144.56;5128449;27;20287;-40
2022/10/18 05:38:57;;;;;;;;;;;;;;;20.90;58.39;102148.94;5123759;28;19969;-40
2022/10/18 05:41:29;;;;;;;;;;;;;;;20.97;57.39;102159.78;5126530;28;20428;-35
2022/10/18 05:43:54;;;;;;;;;;;;;;;20.99;57.76;102154.84;5127910;28;19982;-41
2022/10/18 05:46:20;;;;;;;;;;;;;;;20.92;58.78;102156.97;5126066;28;19923;-43
2022/10/18 05:48:49;;;;;;;;;;;;;;;20.93;59.08;102155.88;5123221;28;20346;-41
2022/10/18 05:51:15;;;;;;;;;;;;;;;20.97;56.96;102160.63;5126659;28;20382;-40
2022/10/18 05:53:41;;;;;;;;;;;;;;;21.00;56.44;102156.50;5118590;28;19932;-39
2022/10/18 05:56:06;;;;;;;;;;;;;;;21.00;56.23;102157.31;5121744;28;19924;-42
2022/10/18 05:58:32;;;;;;;;;;;;;;;21.00;56.04;102148.19;5122832;28;19946;-40
2022/10/18 06:00:59;;;;;;;;;;;;;;;21.01;55.81;102158.16;5094800;28;19977;-39
2022/10/18 06:03:26;;;;;;;;;;;;;;;21.01;55.72;102158.16;5109476;28;20034;-39
2022/10/18 06:05:52;;;;;;;;;;;;;;;21.01;55.81;102161.75;5085284;28;20014;-41
2022/10/18 06:08:17;;;;;;;;;;;;;;;21.01;55.70;102159.00;5085704;28;19950;-40
2022/10/18 06:10:43;;;;;;;;;;;;;;;21.02;55.65;102162.59;5119124;28;19992;-41
2022/10/18 06:13:08;;;;;;;;;;;;;;;21.01;55.62;102166.47;5122018;28;19927;-40
2022/10/18 06:15:34;;;;;;;;;;;;;;;21.05;58.67;102162.91;5117356;27;19939;-40
2022/10/18 06:17:59;;;;;;;;;;;;;;;21.06;56.80;102174.81;5098969;28;19927;-40
2022/10/18 06:20:25;;;;;;;;;;;;;;;21.05;56.17;102179.53;5109783;28;19928;-40
2022/10/18 06:22:52;;;;;;;;;;;;;;;21.06;56.01;102172.03;5109256;27;20378;-41
2022/10/18 06:25:17;;;;;;;;;;;;;;;21.05;55.94;102173.16;5118496;28;20039;-40
2022/10/18 06:27:43;;;;;;;;;;;;;;;21.05;55.79;102178.69;5118835;28;19931;-41
2022/10/18 06:30:08;;;;;;;;;;;;;;;21.05;55.87;102175.94;5122517;28;19923;-40
2022/10/18 06:32:34;;;;;;;;;;;;;;;21.06;55.74;102191.44;5116212;27;20016;-40
2022/10/18 06:34:59;;;;;;;;;;;;;;;21.06;55.67;102191.44;5115800;27;20399;-41
2022/10/18 06:37:27;;;;;;;;;;;;;;;21.05;55.76;102189.78;5111870;27;19924;-39
2022/10/18 06:39:53;;;;;;;;;;;;;;;21.06;55.57;102202.50;5084066;28;20621;-39
2022/10/18 06:42:18;;;;;;;;;;;;;;;21.06;55.65;102202.50;5104676;28;19923;-40
2022/10/18 06:44:48;;;;;;;;;;;;;;;20.63;60.97;102200.69;5112269;28;20410;-34
2022/10/18 06:47:14;;;;;;;;;;;;;;;20.86;59.50;102202.34;5115614;27;20026;-39
2022/10/18 06:49:39;;;;;;;;;;;;;;;20.98;57.71;102190.00;5110447;28;19931;-40
2022/10/18 06:52:06;;;;;;;;;;;;;;;21.04;57.17;102201.97;5118596;27;19961;-40
2022/10/18 06:54:31;;;;;;;;;;;;;;;21.05;56.79;102198.91;5118618;27;19966;-39
2022/10/18 06:56:57;;;;;;;;;;;;;;;21.08;56.92;102199.50;5106630;28;20001;-39
2022/10/18 06:59:23;;;;;;;;;;;;;;;21.08;56.84;102207.81;5109659;27;19923;-40
2022/10/18 07:01:52;;;;;;;;;;;;;;;21.09;56.91;102217.78;5081599;28;20391;-40
2022/10/18 07:04:18;;;;;;;;;;;;;;;21.10;56.71;102222.22;5117405;27;19946;-40
2022/10/18 07:06:43;;;;;;;;;;;;;;;21.11;57.26;102221.13;5096993;27;19931;-43
2022/10/18 07:09:09;;;;;;;;;;;;;;;21.12;56.61;102228.34;5091095;27;19931;-40
2022/10/18 07:11:35;;;;;;;;;;;;;;;21.12;57.48;102231.13;5099239;27;19935;-40
2022/10/18 07:14:02;;;;;;;;;;;;;;;21.13;57.91;102232.78;5117180;28;19988;-42
2022/10/18 07:16:27;;;;;;;;;;;;;;;21.11;57.13;102224.72;5103939;28;20062;-39
2022/10/18 07:18:53;;;;;;;;;;;;;;;21.12;57.98;102225.59;5112285;28;20365;-40
2022/10/18 07:21:19;;;;;;;;;;;;;;;21.12;58.44;102233.88;5111826;27;20520;-40
2022/10/18 07:23:45;;;;;;;;;;;;;;;21.12;57.84;102240.25;5111756;27;20021;-39
2022/10/18 07:26:13;;;;;;;;;;;;;;;21.12;58.10;102233.88;5106125;28;19931;-40
2022/10/18 07:28:39;;;;;;;;;;;;;;;21.12;57.81;102245.81;5081738;28;20047;-40
2022/10/18 07:31:05;;;;;;;;;;;;;;;20.77;61.71;102249.03;5064859;28;20232;-40
2022/10/18 07:33:31;;;;;;;;;;;;;;;20.95;60.24;102242.31;5055930;28;20552;-41
2022/10/18 07:36:01;;;;;;;;;;;;;;;21.03;59.68;102245.44;5077699;27;19937;-42
2022/10/18 07:38:27;;;;;;;;;;;;;;;21.08;59.26;102249.34;5076775;27;20070;-41
2022/10/18 07:40:57;;;;;;;;;;;;;;;21.10;58.96;102250.75;5083544;27;20022;-42
2022/10/18 07:43:22;;;;;;;;;;;;;;;21.11;58.45;102249.66;5080446;28;20042;-41
2022/10/18 07:45:52;;;;;;;;;;;;;;;21.13;58.31;102263.25;5089635;27;19976;-39
2022/10/18 07:48:17;;;;;;;;;;;;;;;21.14;58.56;102264.91;5060346;28;19931;-41
2022/10/18 07:50:43;;;;;;;;;;;;;;;21.14;58.59;102265.75;5076973;27;19950;-39
2022/10/18 07:53:08;;;;;;;;;;;;;;;21.14;58.55;102279.59;5066652;27;19932;-41
2022/10/18 07:55:34;;;;;;;;;;;;;;;21.15;58.19;102283.22;5061975;27;19932;-39
2022/10/18 07:58:00;;;;;;;;;;;;;;;21.15;58.16;102272.13;5083698;27;20708;-41
2022/10/18 08:00:25;;;;;;;;;;;;;;;21.15;57.96;102270.19;5074887;27;19938;-39
2022/10/18 08:02:58;;;;;;;;;;;;;;;21.16;57.96;102271.88;5058147;27;19931;-41
2022/10/18 08:05:25;;;;;;;;;;;;;;;21.17;57.85;102272.72;5054093;28;20022;-39
2022/10/18 08:07:51;;;;;;;;;;;;;;;21.17;57.98;102275.50;5061875;27;20010;-40
2022/10/18 08:10:16;;;;;;;;;;;;;;;21.16;57.05;102282.13;5075126;28;20010;-42
2022/10/18 08:12:42;;;;;;;;;;;;;;;21.18;58.46;102291.84;5080160;28;20149;-40
2022/10/18 08:15:08;;;;;;;;;;;;;;;21.18;58.20;102293.78;5078088;27;19931;-41
2022/10/18 08:17:33;;;;;;;;;;;;;;;21.19;57.80;102301.81;5083769;28;19949;-42
2022/10/18 08:19:59;;;;;;;;;;;;;;;21.18;58.07;102305.69;5069742;27;19953;-40
2022/10/18 08:22:48;;;;;;;;;;;;;;;21.16;59.67;102301.53;5068396;28;19939;-39
2022/10/18 08:25:14;;;;;;;;;;;;;;;21.19;58.67;102303.75;5072503;27;20449;-39
2022/10/18 08:27:39;;;;;;;;;;;;;;;21.23;58.78;102307.69;5066265;27;19927;-39
2022/10/18 08:30:08;;;;;;;;;;;;;;;21.21;58.91;102312.66;5075419;27;19927;-37
2022/10/18 08:32:33;;;;;;;;;;;;;;;21.18;59.48;102313.16;5073704;27;20062;-40
2022/10/18 08:35:00;;;;;;;;;;;;;;;21.25;59.29;102317.41;5070940;28;20736;-41
2022/10/18 08:37:29;;;;;;;;;;;;;;;21.28;59.84;102327.94;5066068;28;19924;-39
2022/10/18 08:39:55;;;;;;;;;;;;;;;20.96;63.42;102327.06;5066300;28;19943;-38
2022/10/18 08:42:26;;;;;;;;;;;;;;;21.15;61.12;102327.53;5066343;28;19932;-39
2022/10/18 08:44:51;;;;;;;;;;;;;;;21.23;61.25;102330.66;5072635;27;20053;-42
2022/10/18 08:47:18;;;;;;;;;;;;;;;21.25;60.98;102327.66;5070275;27;20575;-41
2022/10/18 08:49:45;;;;;;;;;;;;;;;21.25;60.81;102333.19;5074342;28;20393;-41
2022/10/18 08:52:15;;;;;;;;;;;;;;;21.26;60.10;102334.88;5074858;27;19927;-39
2022/10/18 08:54:44;;;;;;;;;;;;;;;21.24;60.01;102329.59;5061943;28;20739;-40
2022/10/18 08:57:12;;;;;;;;;;;;;;;21.24;59.96;102324.06;5085401;27;20465;-42
2022/10/18 08:59:38;;;;;;;;;;;;;;;21.22;60.00;102325.41;5084784;27;20018;-40
2022/10/18 09:02:10;;;;;;;;;;;;;;;21.22;60.15;102329.00;5064877;28;20053;-40
2022/10/18 09:04:39;;;;;;;;;;;;;;;21.23;59.93;102319.59;5085338;28;20034;-40
2022/10/18 09:07:25;;;;;;;;;;;;;;;21.24;59.69;102326.81;5077215;27;19939;-42
2022/10/18 09:09:53;;;;;;;;;;;;;;;21.25;59.34;102334.03;5069741;28;20158;-40
2022/10/18 09:12:25;;;;;;;;;;;;;;;21.26;59.35;102337.63;5078923;27;20349;-41
2022/10/18 09:14:54;;;;;;;;;;;;;;;21.26;59.51;102340.41;5079618;28;20235;-39
2022/10/18 09:17:40;;;;;;;;;;;;;;;21.26;59.22;102340.41;5075239;27;20042;-40
2022/10/18 09:20:25;;;;;;;;;;;;;;;21.27;59.28;102337.38;5063155;28;20408;-40
2022/10/18 09:22:52;;;;;;;;;;;;;;;21.27;59.04;102340.13;5067547;27;20026;-40
2022/10/18 09:25:28;;;;;;;;;;;;;;;21.27;59.06;102347.63;5083745;27;19970;-40
2022/10/18 09:27:56;;;;;;;;;;;;;;;21.27;59.17;102355.94;5061306;27;19989;-41
2022/10/18 09:30:25;;;;;;;;;;;;;;;21.27;58.92;102348.44;5080616;27;19935;-40
2022/10/18 09:33:11;;;;;;;;;;;;;;;21.28;58.76;102358.44;5083306;27;20393;-40
2022/10/18 09:35:38;;;;;;;;;;;;;;;21.27;59.03;102359.53;5064749;28;20283;-41
2022/10/18 09:38:04;;;;;;;;;;;;;;;21.26;59.16;102363.41;5075109;27;20035;-41
2022/10/18 09:40:31;;;;;;;;;;;;;;;21.28;59.08;102365.91;5071466;27;19931;-40
2022/10/18 09:42:58;;;;;;;;;;;;;;;21.27;59.06;102370.63;5057814;28;19939;-40
2022/10/18 09:45:25;;;;;;;;;;;;;;;21.29;58.88;102373.16;5069846;27;19934;-40
2022/10/18 09:47:56;;;;;;;;;;;;;;;21.28;59.07;102352.88;5070055;27;20029;-40
2022/10/18 09:50:24;;;;;;;;;;;;;;;21.29;58.92;102359.28;5074668;27;20403;-41
2022/10/18 09:52:53;;;;;;;;;;;;;;;21.29;58.80;102368.44;5073906;28;20081;-42
2022/10/18 09:55:20;;;;;;;;;;;;;;;21.29;58.35;102371.22;5079831;27;20855;-40
2022/10/18 09:57:47;;;;;;;;;;;;;;;21.28;58.98;102375.06;5069890;28;20476;-41
2022/10/18 10:00:14;;;;;;;;;;;;;;;21.28;58.39;102375.06;5078546;28;20097;-41
2022/10/18 10:02:40;;;;;;;;;;;;;;;21.27;58.23;102378.09;5063956;28;20252;-41
2022/10/18 10:05:08;;;;;;;;;;;;;;;21.29;59.10;102379.53;5079366;27;19954;-41
2022/10/18 10:07:34;;;;;;;;;;;;;;;21.28;58.77;102382.53;5079983;27;20359;-39
2022/10/18 10:10:05;;;;;;;;;;;;;;;21.27;58.96;102381.69;5078210;27;19928;-41
2022/10/18 10:12:32;;;;;;;;;;;;;;;21.27;58.96;102383.63;5065329;28;20022;-42
2022/10/18 10:15:18;;;;;;;;;;;;;;;21.26;59.11;102388.34;5079299;27;20031;-42
2022/10/18 10:17:44;;;;;;;;;;;;;;;21.27;58.68;102387.25;5065792;27;20015;-40
2022/10/18 10:20:14;;;;;;;;;;;;;;;21.28;58.90;102390.84;5058311;27;20154;-40
2022/10/18 10:22:40;;;;;;;;;;;;;;;21.28;58.02;102386.13;5065413;27;20238;-40
2022/10/18 10:25:06;;;;;;;;;;;;;;;21.28;58.65;102394.44;5082321;27;20054;-39
2022/10/18 10:27:33;;;;;;;;;;;;;;;21.27;58.10;102392.78;5078991;27;20528;-42
2022/10/18 10:30:01;;;;;;;;;;;;;;;21.28;58.16;102400.00;5058868;28;19956;-39
2022/10/18 10:32:43;;;;;;;;;;;;;;;21.28;58.45;102391.69;5056586;28;20419;-41
2022/10/18 10:35:29;;;;;;;;;;;;;;;21.27;57.87;102398.31;5082765;27;21902;-39
2022/10/18 10:38:21;;;;;;;;;;;;;;;21.28;57.77;102390.84;5068173;27;19954;-40
2022/10/18 10:40:49;;;;;;;;;;;;;;;21.13;61.65;102399.00;5074090;27;20061;-38
2022/10/18 10:43:16;;;;;;;;;;;;;;;21.06;61.16;102401.94;5071932;27;20046;-41
2022/10/18 10:46:03;;;;;;;;;;;;;;;21.19;60.57;102393.25;5056308;27;19927;-40
2022/10/18 10:48:31;;;;;;;;;;;;;;;21.25;60.26;102395.00;5067963;27;19934;-40
2022/10/18 10:51:06;;;;;;;;;;;;;;;21.24;60.10;102386.91;5077578;28;19935;-39
2022/10/18 10:53:34;;;;;;;;;;;;;;;21.28;60.27;102394.44;5062549;28;20145;-39
2022/10/18 10:55:59;;;;;;;;;;;;;;;21.30;59.24;102389.50;5082079;27;19927;-40
2022/10/18 10:58:25;;;;;;;;;;;;;;;21.33;59.51;102385.41;5085175;27;19971;-40
2022/10/18 11:00:51;;;;;;;;;;;;;;;21.32;59.67;102391.19;5060874;28;20246;-40
2022/10/18 11:03:17;;;;;;;;;;;;;;;21.32;59.61;102392.03;5075792;28;20855;-40
2022/10/18 11:05:54;;;;;;;;;;;;;;;21.32;59.37;102397.56;5063757;28;19985;-41
2022/10/18 11:08:21;;;;;;;;;;;;;;;21.31;59.50;102395.88;5081060;27;19961;-41
2022/10/18 11:10:53;;;;;;;;;;;;;;;21.28;59.53;102394.44;5075831;27;19946;-38
2022/10/18 11:13:29;;;;;;;;;;;;;;;21.04;60.87;102395.84;5080582;28;19938;-40
2022/10/18 11:15:56;;;;;;;;;;;;;;;21.19;60.11;102396.00;5081876;27;20035;-40
2022/10/18 11:18:30;;;;;;;;;;;;;;;21.25;59.76;102394.16;5081151;28;20930;-40
2022/10/18 11:21:06;;;;;;;;;;;;;;;21.29;59.55;102398.09;5065061;27;20058;-40
2022/10/18 11:23:33;;;;;;;;;;;;;;;21.29;59.46;102396.16;5079466;27;20292;-41
2022/10/18 11:26:18;;;;;;;;;;;;;;;21.30;59.42;102389.50;5077165;27;20065;-40
2022/10/18 11:28:55;;;;;;;;;;;;;;;21.31;59.36;102387.56;5064430;27;20064;-42
2022/10/18 11:31:40;;;;;;;;;;;;;;;21.32;59.28;102391.19;5080835;27;19963;-40
2022/10/18 11:34:12;;;;;;;;;;;;;;;21.33;58.99;102390.09;5079921;27;19957;-40
2022/10/18 11:36:58;;;;;;;;;;;;;;;21.32;59.01;102383.72;5062997;28;20790;-40
2022/10/18 11:39:52;;;;;;;;;;;;;;;21.23;59.59;102382.47;5049935;28;19931;-41
2022/10/18 11:42:25;;;;;;;;;;;;;;;21.32;59.16;102392.03;5081414;27;20075;-40
2022/10/18 11:44:55;;;;;;;;;;;;;;;21.34;59.23;102389.03;5076843;27;19931;-39
2022/10/18 11:47:24;;;;;;;;;;;;;;;21.33;59.13;102385.41;5070909;27;20010;-40
2022/10/18 11:49:54;;;;;;;;;;;;;;;21.32;59.35;102388.44;5055161;28;19931;-40
2022/10/18 11:52:26;;;;;;;;;;;;;;;21.32;59.24;102382.88;5077128;28;20320;-40
2022/10/18 11:55:11;;;;;;;;;;;;;;;21.34;58.93;102384.31;5081154;27;19928;-40
2022/10/18 11:57:46;;;;;;;;;;;;;;;21.36;59.07;102386.81;5062120;28;20046;-39
2022/10/18 12:00:32;;;;;;;;;;;;;;;21.35;58.83;102387.91;5069990;27;20033;-39
2022/10/18 12:03:14;;;;;;;;;;;;;;;21.34;58.89;102389.84;5061589;28;20407;-41
2022/10/18 12:05:40;;;;;;;;;;;;;;;21.35;58.99;102399.84;5056876;28;19955;-39
2022/10/18 12:08:06;;;;;;;;;;;;;;;21.35;58.78;102390.69;5072039;27;19927;-43
2022/10/18 12:10:32;;;;;;;;;;;;;;;21.39;58.31;102389.06;5074975;27;19979;-40
2022/10/18 12:13:21;;;;;;;;;;;;;;;21.40;58.64;102393.50;5063422;28;20717;-40
2022/10/18 12:15:47;;;;;;;;;;;;;;;21.39;58.52;102391.84;5073331;27;20789;-40
2022/10/18 12:18:13;;;;;;;;;;;;;;;21.37;58.54;102386.53;5077770;27;20520;-40
2022/10/18 12:20:44;;;;;;;;;;;;;;;21.38;58.48;102387.41;5055543;28;20316;-41
2022/10/18 12:23:13;;;;;;;;;;;;;;;21.36;58.54;102384.88;5054366;28;20054;-40
2022/10/18 12:25:39;;;;;;;;;;;;;;;21.38;58.41;102379.09;5075940;27;20382;-40
2022/10/18 12:28:24;;;;;;;;;;;;;;;21.36;58.68;102373.78;5076280;28;20018;-39
2022/10/18 12:30:53;;;;;;;;;;;;;;;21.36;58.44;102375.72;5060269;27;20198;-40
2022/10/18 12:33:21;;;;;;;;;;;;;;;21.36;58.39;102378.50;5067178;27;19928;-40
2022/10/18 12:35:59;;;;;;;;;;;;;;;21.37;58.30;102382.94;5077123;27;19931;-42
2022/10/18 12:38:26;;;;;;;;;;;;;;;21.34;58.37;102366.84;5081984;27;20452;-40
2022/10/18 12:40:52;;;;;;;;;;;;;;;21.34;58.23;102364.09;5078484;27;20497;-40
2022/10/18 12:43:20;;;;;;;;;;;;;;;21.35;58.09;102361.03;5068447;27;20025;-40